createdAt,value
2023-03-18T00:02:05.697Z,6.03
2023-03-18T00:04:34.997Z,6.33
2023-03-18T00:07:05.461Z,6.60
2023-03-18T00:09:34.659Z,6.33
2023-03-18T00:12:04.151Z,6.63
2023-03-18T00:14:35.076Z,6.33
2023-03-18T00:17:02.231Z,6.17
2023-03-18T00:19:31.003Z,5.40
2023-03-18T00:22:07.967Z,6.47
2023-03-18T00:24:43.973Z,6.57
2023-03-18T00:27:15.753Z,6.63
2023-03-18T00:29:45.227Z,5.97
2023-03-18T00:32:15.566Z,5.80
2023-03-18T00:34:50.552Z,5.97
2023-03-18T00:37:30.750Z,5.93
2023-03-18T00:40:09.557Z,5.67
2023-03-18T00:42:49.112Z,6.10
2023-03-18T00:45:26.088Z,6.47
2023-03-18T00:48:04.419Z,6.13
2023-03-18T00:50:33.674Z,7.07
2023-03-18T00:53:03.572Z,6.90
2023-03-18T00:55:33.937Z,6.13
2023-03-18T00:58:01.167Z,5.53
2023-03-18T01:00:33.700Z,6.03
2023-03-18T01:03:02.210Z,5.97
2023-03-18T01:06:32.021Z,6.00
2023-03-18T01:09:01.850Z,6.20
2023-03-18T01:11:29.439Z,5.87
2023-03-18T01:14:09.748Z,6.57
2023-03-18T01:16:38.839Z,6.77
2023-03-18T01:19:12.384Z,6.57
2023-03-18T01:21:43.227Z,6.53
2023-03-18T01:24:12.190Z,6.53
2023-03-18T01:26:42.773Z,6.00
2023-03-18T01:29:18.732Z,6.40
2023-03-18T01:31:49.517Z,6.20
2023-03-18T01:34:21.466Z,6.57
2023-03-18T01:36:49.055Z,6.00
2023-03-18T01:39:25.066Z,5.83
2023-03-18T01:41:55.086Z,6.43
2023-03-18T01:44:25.977Z,6.10
2023-03-18T01:46:55.565Z,5.97
2023-03-18T01:49:35.837Z,6.27
2023-03-18T01:52:27.075Z,6.10
2023-03-18T01:55:04.375Z,5.87
2023-03-18T01:57:35.458Z,6.50
2023-03-18T02:00:24.781Z,5.83
2023-03-18T02:02:59.355Z,6.37
2023-03-18T02:05:36.321Z,6.30
2023-03-18T02:08:04.876Z,6.03
2023-03-18T02:10:33.861Z,6.10
2023-03-18T02:13:16.997Z,6.23
2023-03-18T02:15:57.302Z,6.43
2023-03-18T02:18:38.151Z,6.60
2023-03-18T02:21:53.817Z,6.37
2023-03-18T02:24:32.576Z,6.00
2023-03-18T02:27:23.262Z,6.00
2023-03-18T02:30:05.048Z,5.50
2023-03-18T02:32:37.279Z,6.33
2023-03-18T02:35:10.167Z,6.70
2023-03-18T02:37:39.864Z,6.17
2023-03-18T02:40:27.022Z,7.00
2023-03-18T02:42:57.490Z,6.53
2023-03-18T02:46:04.158Z,6.57
2023-03-18T02:48:50.015Z,7.27
2023-03-18T02:51:27.249Z,6.20
2023-03-18T02:54:16.802Z,6.60
2023-03-18T02:56:47.760Z,6.53
2023-03-18T02:59:19.368Z,6.13
2023-03-18T03:01:52.415Z,7.13
2023-03-18T03:04:27.710Z,6.73
2023-03-18T03:06:57.598Z,5.70
2023-03-18T03:09:26.922Z,6.50
2023-03-18T03:11:56.626Z,6.57
2023-03-18T03:14:27.862Z,7.00
2023-03-18T03:17:00.402Z,6.00
2023-03-18T03:19:28.778Z,6.90
2023-03-18T03:21:59.560Z,6.43
2023-03-18T03:24:28.041Z,6.00
2023-03-18T03:26:55.385Z,7.00
2023-03-18T03:29:22.963Z,6.90
2023-03-18T03:31:52.368Z,6.10
2023-03-18T03:34:23.997Z,6.00
2023-03-18T03:37:01.589Z,6.87
2023-03-18T03:39:28.692Z,5.97
2023-03-18T03:42:05.466Z,6.07
2023-03-18T03:44:33.623Z,7.53
2023-03-18T03:47:10.656Z,5.77
2023-03-18T03:49:42.126Z,6.47
2023-03-18T03:52:11.785Z,6.90
2023-03-18T03:54:42.841Z,7.13
2023-03-18T03:57:13.376Z,6.57
2023-03-18T03:59:42.707Z,7.10
2023-03-18T04:02:18.743Z,5.77
2023-03-18T04:04:49.025Z,7.13
2023-03-18T04:07:17.965Z,6.30
2023-03-18T04:09:48.102Z,6.83
2023-03-18T04:12:26.726Z,6.63
2023-03-18T04:15:05.800Z,6.40
2023-03-18T04:17:39.633Z,5.90
2023-03-18T04:20:09.486Z,5.77
2023-03-18T04:22:46.896Z,7.20
2023-03-18T04:25:18.001Z,6.53
2023-03-18T04:27:55.238Z,6.43
2023-03-18T04:30:25.800Z,6.23
2023-03-18T04:32:55.605Z,7.43
2023-03-18T04:35:30.617Z,6.43
2023-03-18T04:38:01.537Z,6.57
2023-03-18T04:40:33.344Z,6.27
2023-03-18T04:43:05.478Z,6.30
2023-03-18T04:45:34.725Z,6.53
2023-03-18T04:48:05.301Z,6.27
2023-03-18T04:50:36.068Z,6.20
2023-03-18T04:55:45.868Z,6.13
2023-03-18T04:58:13.901Z,6.33
2023-03-18T05:00:44.751Z,6.50
2023-03-18T05:03:15.673Z,6.53
2023-03-18T05:05:46.758Z,6.73
2023-03-18T05:08:17.443Z,6.73
2023-03-18T05:10:46.554Z,6.90
2023-03-18T05:13:22.184Z,7.40
2023-03-18T05:15:49.397Z,6.80
2023-03-18T05:18:16.880Z,6.50
2023-03-18T05:20:44.560Z,6.40
2023-03-18T05:23:13.278Z,6.77
2023-03-18T05:26:03.271Z,6.30
2023-03-18T05:28:33.854Z,6.40
2023-03-18T05:31:01.560Z,7.03
2023-03-18T05:33:28.656Z,7.17
2023-03-18T05:35:59.277Z,6.43
2023-03-18T05:38:29.182Z,6.53
2023-03-18T05:40:57.589Z,6.37
2023-03-18T05:43:29.690Z,7.30
2023-03-18T05:46:00.175Z,7.07
2023-03-18T05:48:29.273Z,7.40
2023-03-18T05:50:59.818Z,6.73
2023-03-18T05:53:29.715Z,6.93
2023-03-18T05:55:56.983Z,6.87
2023-03-18T05:58:27.001Z,7.60
2023-03-18T06:01:01.783Z,6.50
2023-03-18T06:03:29.951Z,6.00
2023-03-18T06:05:59.945Z,5.90
2023-03-18T06:08:29.964Z,6.17
2023-03-18T06:11:00.385Z,5.83
2023-03-18T06:13:29.725Z,6.53
2023-03-18T06:16:07.271Z,6.40
2023-03-18T06:18:35.500Z,6.33
2023-03-18T06:21:10.928Z,6.37
2023-03-18T06:23:39.972Z,6.53
2023-03-18T06:28:57.082Z,7.60
2023-03-18T06:31:34.823Z,7.30
2023-03-18T06:34:06.977Z,7.17
2023-03-18T06:36:35.541Z,6.63
2023-03-18T06:39:04.530Z,6.30
2023-03-18T06:41:33.278Z,6.53
2023-03-18T06:44:03.026Z,5.70
2023-03-18T06:46:33.435Z,6.00
2023-03-18T06:49:03.137Z,6.40
2023-03-18T06:51:38.475Z,7.00
2023-03-18T06:54:07.438Z,5.87
2023-03-18T06:56:56.255Z,6.17
2023-03-18T06:59:26.854Z,6.50
2023-03-18T07:01:57.934Z,6.57
2023-03-18T07:04:26.654Z,6.20
2023-03-18T07:06:54.936Z,7.53
2023-03-18T07:09:22.932Z,6.40
2023-03-18T07:11:50.299Z,6.73
2023-03-18T07:14:29.979Z,7.53
2023-03-18T07:16:59.939Z,7.17
2023-03-18T07:19:27.541Z,6.33
2023-03-18T07:22:04.719Z,6.10
2023-03-18T07:24:35.421Z,6.10
2023-03-18T07:27:05.766Z,6.57
2023-03-18T07:29:36.192Z,6.23
2023-03-18T07:32:05.925Z,6.60
2023-03-18T07:34:36.596Z,6.43
2023-03-18T07:37:06.192Z,6.20
2023-03-18T07:39:34.151Z,6.20
2023-03-18T07:42:02.838Z,5.47
2023-03-18T07:44:39.069Z,7.07
2023-03-18T07:47:09.549Z,6.30
2023-03-18T07:49:37.974Z,6.40
2023-03-18T07:52:07.504Z,7.23
2023-03-18T07:54:40.708Z,6.43
2023-03-18T07:57:14.236Z,6.33
2023-03-18T07:59:52.840Z,6.73
2023-03-18T08:02:23.922Z,6.43
2023-03-18T08:04:56.166Z,6.57
2023-03-18T08:07:29.483Z,5.90
2023-03-18T08:09:58.005Z,7.22
2023-03-18T08:12:38.480Z,7.10
2023-03-18T08:15:18.723Z,6.43
2023-03-18T08:17:48.778Z,6.53
2023-03-18T08:20:17.147Z,6.50
2023-03-18T08:22:46.619Z,6.13
2023-03-18T08:25:19.481Z,6.38
2023-03-18T08:27:49.947Z,7.13
2023-03-18T08:30:18.461Z,6.43
2023-03-18T08:32:47.249Z,6.45
2023-03-18T08:35:15.946Z,6.80
2023-03-18T08:37:44.760Z,7.10
2023-03-18T08:40:13.761Z,6.90
2023-03-18T08:42:44.041Z,7.13
2023-03-18T08:45:15.617Z,6.97
2023-03-18T08:47:45.168Z,6.70
2023-03-18T08:50:15.021Z,6.80
2023-03-18T08:52:43.473Z,7.27
2023-03-18T08:55:17.459Z,6.47
2023-03-18T08:58:07.121Z,5.27
2023-03-18T09:00:37.886Z,7.13
2023-03-18T09:03:06.915Z,6.43
2023-03-18T09:05:35.579Z,5.63
2023-03-18T09:08:05.687Z,7.03
2023-03-18T09:10:41.703Z,6.47
2023-03-18T11:49:46.200Z,7.80
2023-03-18T12:35:29.177Z,7.10
2023-03-18T14:25:30.473Z,9.10
2023-03-18T16:57:55.321Z,9.60
2023-03-18T17:05:06.058Z,13.37
2023-03-18T17:16:11.072Z,17.90
2023-03-18T17:19:08.318Z,26.90
2023-03-18T17:39:24.172Z,16.30
2023-03-18T18:04:04.638Z,10.40
2023-03-18T21:44:56.035Z,9.83
2023-03-18T22:27:46.206Z,9.97
2023-03-18T22:38:00.900Z,9.37
2023-03-18T22:58:14.479Z,11.07
2023-03-18T23:59:01.656Z,9.13
